createdAt,value
2023-02-04T00:01:14.195Z,5.60
2023-02-04T00:06:17.992Z,5.30
2023-02-04T00:11:23.119Z,5.00
2023-02-04T00:16:28.809Z,4.80
2023-02-04T00:21:38.012Z,4.80
2023-02-04T00:26:43.146Z,4.70
2023-02-04T00:31:53.584Z,4.50
2023-02-04T00:36:57.165Z,4.40
2023-02-04T00:42:00.258Z,4.30
2023-02-04T00:47:10.469Z,4.20
2023-02-04T00:52:23.496Z,4.00
2023-02-04T00:57:32.069Z,3.90
2023-02-04T01:02:43.472Z,3.80
2023-02-04T01:07:49.667Z,3.90
2023-02-04T01:13:01.797Z,4.00
2023-02-04T01:18:07.862Z,4.20
2023-02-04T01:23:23.266Z,4.30
2023-02-04T01:28:41.364Z,4.20
2023-02-04T01:34:03.505Z,4.10
2023-02-04T01:39:15.991Z,4.00
2023-02-04T01:44:18.939Z,3.80
2023-02-04T01:49:30.096Z,3.70
2023-02-04T01:54:33.729Z,3.70
2023-02-04T01:59:41.126Z,3.40
2023-02-04T02:04:46.527Z,3.30
2023-02-04T02:09:51.788Z,3.30
2023-02-04T02:14:54.845Z,3.50
2023-02-04T02:20:02.011Z,3.60
2023-02-04T02:25:12.589Z,3.50
2023-02-04T02:30:20.634Z,3.50
2023-02-04T02:35:23.930Z,3.50
2023-02-04T02:40:34.450Z,3.60
2023-02-04T02:45:37.374Z,3.60
2023-02-04T02:50:40.840Z,3.70
2023-02-04T02:55:47.998Z,3.70
2023-02-04T03:00:53.319Z,3.80
2023-02-04T03:06:01.898Z,3.80
2023-02-04T03:11:10.005Z,3.70
2023-02-04T03:16:25.537Z,3.60
2023-02-04T03:21:29.051Z,3.80
2023-02-04T03:26:40.349Z,3.70
2023-02-04T03:31:43.195Z,3.80
2023-02-04T03:36:45.930Z,3.80
2023-02-04T03:41:50.071Z,3.80
2023-02-04T03:46:55.294Z,3.90
2023-02-04T03:51:57.978Z,3.60
2023-02-04T03:57:01.997Z,3.10
2023-02-04T04:02:05.031Z,2.60
2023-02-04T04:07:08.262Z,2.40
2023-02-04T04:12:12.407Z,2.20
2023-02-04T04:17:15.474Z,2.10
2023-02-04T04:22:18.455Z,2.00
2023-02-04T04:27:22.561Z,2.20
2023-02-04T04:32:25.880Z,2.40
2023-02-04T04:37:28.556Z,2.60
2023-02-04T04:42:32.609Z,2.70
2023-02-04T04:47:35.411Z,2.80
2023-02-04T04:52:38.761Z,2.70
2023-02-04T04:57:43.023Z,2.80
2023-02-04T05:02:45.846Z,2.90
2023-02-04T05:07:48.813Z,3.00
2023-02-04T05:12:52.913Z,2.90
2023-02-04T05:17:55.577Z,2.90
2023-02-04T05:23:01.045Z,2.90
2023-02-04T05:28:05.428Z,2.80
2023-02-04T05:33:08.243Z,2.40
2023-02-04T05:38:11.056Z,2.20
2023-02-04T05:43:15.100Z,2.40
2023-02-04T05:48:17.733Z,2.50
2023-02-04T05:53:20.394Z,2.60
2023-02-04T05:58:24.375Z,2.50
2023-02-04T06:03:27.107Z,2.50
2023-02-04T06:08:29.787Z,2.40
2023-02-04T06:13:33.888Z,2.10
2023-02-04T06:18:36.582Z,2.00
2023-02-04T06:23:39.300Z,2.00
2023-02-04T06:28:43.445Z,2.10
2023-02-04T06:33:46.344Z,1.90
2023-02-04T06:38:49.046Z,1.60
2023-02-04T06:43:53.051Z,1.30
2023-02-04T06:48:56.350Z,1.10
2023-02-04T06:53:59.198Z,0.80
2023-02-04T06:59:03.528Z,0.80
2023-02-04T07:04:06.292Z,1.00
2023-02-04T07:09:08.948Z,1.00
2023-02-04T07:14:13.019Z,1.10
2023-02-04T07:19:16.053Z,1.30
2023-02-04T07:24:18.692Z,2.20
2023-02-04T07:29:26.134Z,2.80
2023-02-04T07:34:28.908Z,4.00
2023-02-04T07:39:31.558Z,5.40
2023-02-04T07:44:36.989Z,8.00
2023-02-04T07:49:39.714Z,9.50
2023-02-04T07:54:42.889Z,10.20
2023-02-04T07:59:46.847Z,11.00
2023-02-04T08:04:49.539Z,9.70
2023-02-04T08:09:52.272Z,8.10
2023-02-04T08:14:56.457Z,6.60
2023-02-04T08:19:59.234Z,5.20
2023-02-04T08:25:01.991Z,4.30
2023-02-04T08:30:07.242Z,4.30
2023-02-04T08:35:10.246Z,4.10
2023-02-04T08:40:13.381Z,3.80
2023-02-04T08:45:17.524Z,3.90
2023-02-04T08:50:20.427Z,4.00
2023-02-04T08:55:25.862Z,4.20
2023-02-04T09:00:30.596Z,4.50
2023-02-04T09:05:33.651Z,5.00
2023-02-04T09:10:36.373Z,5.60
2023-02-04T09:15:40.449Z,6.20
2023-02-04T09:20:43.594Z,6.90
2023-02-04T09:25:46.882Z,6.80
2023-02-04T09:30:50.904Z,6.10
2023-02-04T09:35:53.667Z,5.80
2023-02-04T09:40:58.783Z,6.90
2023-02-04T09:46:04.426Z,7.60
2023-02-04T09:51:09.187Z,8.50
2023-02-04T09:56:14.806Z,9.30
2023-02-04T10:01:21.126Z,9.20
2023-02-04T10:06:25.239Z,8.70
2023-02-04T10:11:28.542Z,8.30
2023-02-04T10:16:34.452Z,7.90
2023-02-04T10:21:37.656Z,7.50
2023-02-04T10:26:40.355Z,7.80
2023-02-04T10:31:57.517Z,10.10
2023-02-04T10:37:01.225Z,11.30
2023-02-04T10:42:04.018Z,11.30
2023-02-04T10:47:16.035Z,9.60
2023-02-04T10:52:20.607Z,8.80
2023-02-04T10:57:25.547Z,7.70
2023-02-04T11:02:44.082Z,7.10
2023-02-04T11:07:47.606Z,7.70
2023-02-04T11:13:01.798Z,11.00
2023-02-04T11:18:07.218Z,11.10
2023-02-04T11:23:36.222Z,15.10
2023-02-04T11:28:48.805Z,21.00
2023-02-04T11:34:08.697Z,18.40
2023-02-04T11:39:17.795Z,12.70
2023-02-04T11:44:22.670Z,13.00
2023-02-04T11:49:27.937Z,16.40
2023-02-04T11:54:30.733Z,14.40
2023-02-04T11:59:35.400Z,19.20
2023-02-04T12:04:39.453Z,18.50
2023-02-04T12:09:48.948Z,14.30
2023-02-04T12:14:58.431Z,11.10
2023-02-04T12:20:05.008Z,8.90
2023-02-04T12:25:08.672Z,7.70
2023-02-04T12:30:13.323Z,11.10
2023-02-04T12:35:18.152Z,10.40
2023-02-04T12:40:22.544Z,8.20
2023-02-04T12:45:28.040Z,13.80
2023-02-04T12:50:32.099Z,18.00
2023-02-04T12:55:35.080Z,16.40
2023-02-04T13:00:37.983Z,17.90
2023-02-04T13:05:41.970Z,20.00
2023-02-04T13:10:44.632Z,19.40
2023-02-04T13:15:47.711Z,14.80
2023-02-04T13:20:51.709Z,11.90
2023-02-04T13:25:54.438Z,14.30
2023-02-04T13:30:57.122Z,15.20
2023-02-04T13:36:01.199Z,14.70
2023-02-04T13:41:03.996Z,16.40
2023-02-04T13:46:06.783Z,18.90
2023-02-04T13:51:10.982Z,14.30
2023-02-04T13:56:13.891Z,14.90
2023-02-04T14:01:16.739Z,13.30
2023-02-04T14:06:21.674Z,13.50
2023-02-04T14:11:24.409Z,12.10
2023-02-04T14:16:27.323Z,11.20
2023-02-04T14:21:31.553Z,9.80
2023-02-04T14:26:34.247Z,9.00
2023-02-04T14:31:37.615Z,8.60
2023-02-04T14:36:41.799Z,8.70
2023-02-04T14:41:44.871Z,10.90
2023-02-04T14:46:48.902Z,13.40
2023-02-04T14:51:53.356Z,13.40
2023-02-04T14:56:56.290Z,11.10
2023-02-04T15:02:00.780Z,9.30
2023-02-04T15:07:05.532Z,8.10
2023-02-04T15:12:10.605Z,7.30
2023-02-04T15:17:13.869Z,7.30
2023-02-04T15:22:17.883Z,7.30
2023-02-04T15:27:26.364Z,7.00
2023-02-04T15:32:29.106Z,6.80
2023-02-04T15:37:33.610Z,6.50
2023-02-04T15:42:37.129Z,6.20
2023-02-04T15:47:39.898Z,5.70
2023-02-04T15:52:43.872Z,5.40
2023-02-04T15:57:46.598Z,5.10
2023-02-04T16:02:49.688Z,4.80
2023-02-04T16:07:54.555Z,4.60
2023-02-04T16:12:58.677Z,4.40
2023-02-04T16:18:01.404Z,4.50
2023-02-04T16:23:07.134Z,4.00
2023-02-04T16:28:09.887Z,3.70
2023-02-04T16:33:12.591Z,3.50
2023-02-04T16:38:19.294Z,3.30
2023-02-04T16:43:22.709Z,3.20
2023-02-04T16:48:26.479Z,3.20
2023-02-04T16:53:30.511Z,3.00
2023-02-04T16:58:33.201Z,2.80
2023-02-04T17:03:35.910Z,2.70
2023-02-04T17:08:39.946Z,2.40
2023-02-04T17:13:42.581Z,2.20
2023-02-04T17:18:45.243Z,2.20
2023-02-04T17:23:49.485Z,1.80
2023-02-04T17:28:52.268Z,1.70
2023-02-04T17:33:54.935Z,1.60
2023-02-04T17:38:58.986Z,1.60
2023-02-04T17:44:03.208Z,1.60
2023-02-04T17:49:05.946Z,1.70
2023-02-04T17:54:12.517Z,1.60
2023-02-04T17:59:15.994Z,1.40
2023-02-04T18:04:18.718Z,1.30
2023-02-04T18:09:23.364Z,1.20
2023-02-04T18:14:28.325Z,1.40
2023-02-04T18:19:35.161Z,1.40
2023-02-04T18:24:42.121Z,1.30
2023-02-04T18:29:47.487Z,1.20
2023-02-04T18:34:51.815Z,1.10
2023-02-04T18:40:16.423Z,0.90
2023-02-04T18:45:24.945Z,0.80
2023-02-04T18:50:30.854Z,0.80
2023-02-04T18:55:48.036Z,0.90
2023-02-04T19:00:54.061Z,1.00
2023-02-04T19:06:07.108Z,1.00
2023-02-04T19:11:36.119Z,1.00
2023-02-04T19:16:39.173Z,0.70
2023-02-04T19:21:41.876Z,0.70
2023-02-04T19:26:51.648Z,1.00
2023-02-04T19:31:58.337Z,1.10
2023-02-04T19:37:01.079Z,1.20
2023-02-04T19:42:25.051Z,1.20
2023-02-04T19:47:30.286Z,1.30
2023-02-04T19:52:35.847Z,1.30
2023-02-04T19:57:39.950Z,1.30
2023-02-04T20:02:42.872Z,1.30
2023-02-04T20:07:45.586Z,1.30
2023-02-04T20:12:51.258Z,1.30
2023-02-04T20:18:27.653Z,1.30
2023-02-04T20:23:36.020Z,1.20
2023-02-04T20:28:42.334Z,1.00
2023-02-04T20:33:57.099Z,0.90
2023-02-04T20:39:29.787Z,0.70
2023-02-04T20:50:49.248Z,0.40
2023-02-04T20:56:05.441Z,0.20
2023-02-04T21:01:25.540Z,0.20
2023-02-04T21:06:34.097Z,0.40
2023-02-04T21:11:43.711Z,0.40
2023-02-04T21:16:59.357Z,0.70
2023-02-04T21:22:24.587Z,0.80
2023-02-04T21:27:27.445Z,0.70
2023-02-04T21:32:42.133Z,0.60
2023-02-04T21:37:51.143Z,0.60
2023-02-04T21:43:08.730Z,0.40
2023-02-04T21:48:12.856Z,0.10
2023-02-04T21:53:28.655Z,-0.30
2023-02-04T21:58:31.793Z,-0.70
2023-02-04T22:03:36.334Z,-0.90
2023-02-04T22:08:39.111Z,-1.30
2023-02-04T22:14:02.831Z,-1.30
2023-02-04T22:19:07.350Z,-1.40
2023-02-04T22:24:10.378Z,-1.30
2023-02-04T22:29:13.363Z,-1.20
2023-02-04T22:34:18.339Z,-1.10
2023-02-04T22:39:20.999Z,-0.90
2023-02-04T22:44:23.657Z,-0.70
2023-02-04T22:49:27.698Z,-0.70
2023-02-04T22:54:30.401Z,-0.80
2023-02-04T22:59:33.200Z,-0.90
2023-02-04T23:04:37.272Z,-1.00
2023-02-04T23:09:40.601Z,-1.10
2023-02-04T23:14:45.049Z,-1.20
2023-02-04T23:19:49.067Z,-1.50
2023-02-04T23:24:51.698Z,-1.60
2023-02-04T23:29:54.389Z,-1.60
2023-02-04T23:34:58.520Z,-1.60
2023-02-04T23:40:01.204Z,-1.80
2023-02-04T23:45:04.201Z,-1.80
2023-02-04T23:50:09.141Z,-1.70
2023-02-04T23:55:11.814Z,-1.60
